sensor_id;sensor_type;location;lat;lon;timestamp;temperature;humidity
13898;DHT22;7019;50.766;4.474;2022-10-16T00:01:27;11.70;99.90
13898;DHT22;7019;50.766;4.474;2022-10-16T00:03:55;11.70;99.90
13898;DHT22;7019;50.766;4.474;2022-10-16T00:06:23;11.70;99.90
13898;DHT22;7019;50.766;4.474;2022-10-16T00:08:50;11.70;99.90
13898;DHT22;7019;50.766;4.474;2022-10-16T00:11:20;11.70;99.90
13898;DHT22;7019;50.766;4.474;2022-10-16T00:13:50;11.60;99.90
13898;DHT22;7019;50.766;4.474;2022-10-16T00:16:18;11.60;99.90
13898;DHT22;7019;50.766;4.474;2022-10-16T00:18:45;11.60;99.90
13898;DHT22;7019;50.766;4.474;2022-10-16T00:21:15;11.60;99.90
13898;DHT22;7019;50.766;4.474;2022-10-16T00:23:43;11.50;99.90
13898;DHT22;7019;50.766;4.474;2022-10-16T00:26:16;11.60;99.90
13898;DHT22;7019;50.766;4.474;2022-10-16T00:28:45;11.50;99.90
13898;DHT22;7019;50.766;4.474;2022-10-16T00:31:15;11.50;99.90
13898;DHT22;7019;50.766;4.474;2022-10-16T00:33:42;11.50;99.90
13898;DHT22;7019;50.766;4.474;2022-10-16T00:36:11;11.60;99.90
13898;DHT22;7019;50.766;4.474;2022-10-16T00:38:39;11.60;99.90
13898;DHT22;7019;50.766;4.474;2022-10-16T00:41:07;11.60;99.90
13898;DHT22;7019;50.766;4.474;2022-10-16T00:43:39;11.50;99.90
13898;DHT22;7019;50.766;4.474;2022-10-16T00:46:12;11.50;99.90
13898;DHT22;7019;50.766;4.474;2022-10-16T00:48:43;11.50;99.90
13898;DHT22;7019;50.766;4.474;2022-10-16T00:51:12;11.40;99.90
13898;DHT22;7019;50.766;4.474;2022-10-16T00:53:39;11.40;99.90
13898;DHT22;7019;50.766;4.474;2022-10-16T00:56:06;11.30;99.90
13898;DHT22;7019;50.766;4.474;2022-10-16T00:58:34;11.30;99.90
13898;DHT22;7019;50.766;4.474;2022-10-16T01:01:01;11.30;99.90
13898;DHT22;7019;50.766;4.474;2022-10-16T01:03:30;11.30;99.90
13898;DHT22;7019;50.766;4.474;2022-10-16T01:06:15;11.30;99.90
13898;DHT22;7019;50.766;4.474;2022-10-16T01:08:58;11.30;99.90
13898;DHT22;7019;50.766;4.474;2022-10-16T01:11:33;11.30;99.90
13898;DHT22;7019;50.766;4.474;2022-10-16T01:14:06;11.30;99.90
13898;DHT22;7019;50.766;4.474;2022-10-16T01:16:40;11.30;99.90
13898;DHT22;7019;50.766;4.474;2022-10-16T01:19:12;11.40;99.90
13898;DHT22;7019;50.766;4.474;2022-10-16T01:21:43;11.40;99.90
13898;DHT22;7019;50.766;4.474;2022-10-16T01:24:17;11.40;99.90
13898;DHT22;7019;50.766;4.474;2022-10-16T01:27:05;11.40;99.90
13898;DHT22;7019;50.766;4.474;2022-10-16T01:29:36;11.40;99.90
13898;DHT22;7019;50.766;4.474;2022-10-16T01:32:11;11.50;99.90
13898;DHT22;7019;50.766;4.474;2022-10-16T01:34:46;11.40;99.90
13898;DHT22;7019;50.766;4.474;2022-10-16T01:37:16;11.40;99.90
13898;DHT22;7019;50.766;4.474;2022-10-16T01:39:47;11.50;99.90
13898;DHT22;7019;50.766;4.474;2022-10-16T01:42:20;11.40;99.90
13898;DHT22;7019;50.766;4.474;2022-10-16T01:44:48;11.40;99.90
13898;DHT22;7019;50.766;4.474;2022-10-16T01:47:17;11.50;99.90
13898;DHT22;7019;50.766;4.474;2022-10-16T01:49:47;11.50;99.90
13898;DHT22;7019;50.766;4.474;2022-10-16T01:52:17;11.40;99.90
13898;DHT22;7019;50.766;4.474;2022-10-16T01:54:47;11.40;99.90
13898;DHT22;7019;50.766;4.474;2022-10-16T01:57:19;11.30;99.90
13898;DHT22;7019;50.766;4.474;2022-10-16T01:59:50;11.30;99.90
13898;DHT22;7019;50.766;4.474;2022-10-16T02:02:19;11.20;99.90
13898;DHT22;7019;50.766;4.474;2022-10-16T02:04:49;11.20;99.90
13898;DHT22;7019;50.766;4.474;2022-10-16T02:07:19;11.20;99.90
13898;DHT22;7019;50.766;4.474;2022-10-16T02:09:46;11.20;99.90
13898;DHT22;7019;50.766;4.474;2022-10-16T02:12:15;11.40;99.90
13898;DHT22;7019;50.766;4.474;2022-10-16T02:14:47;11.50;99.90
13898;DHT22;7019;50.766;4.474;2022-10-16T02:17:17;11.50;99.90
13898;DHT22;7019;50.766;4.474;2022-10-16T02:19:45;11.50;99.90
13898;DHT22;7019;50.766;4.474;2022-10-16T02:22:17;11.50;99.90
13898;DHT22;7019;50.766;4.474;2022-10-16T02:24:52;11.50;99.90
13898;DHT22;7019;50.766;4.474;2022-10-16T02:27:24;11.50;99.90
13898;DHT22;7019;50.766;4.474;2022-10-16T02:29:59;11.50;99.90
13898;DHT22;7019;50.766;4.474;2022-10-16T02:32:30;11.60;99.90
13898;DHT22;7019;50.766;4.474;2022-10-16T02:34:59;11.50;99.90
13898;DHT22;7019;50.766;4.474;2022-10-16T02:37:27;11.50;99.90
13898;DHT22;7019;50.766;4.474;2022-10-16T02:39:56;11.40;99.90
13898;DHT22;7019;50.766;4.474;2022-10-16T02:42:28;11.40;99.90
13898;DHT22;7019;50.766;4.474;2022-10-16T02:44:56;11.40;99.90
13898;DHT22;7019;50.766;4.474;2022-10-16T02:47:24;11.40;99.90
13898;DHT22;7019;50.766;4.474;2022-10-16T02:49:51;11.40;99.90
13898;DHT22;7019;50.766;4.474;2022-10-16T02:52:18;11.40;99.90
13898;DHT22;7019;50.766;4.474;2022-10-16T02:54:45;11.30;99.90
13898;DHT22;7019;50.766;4.474;2022-10-16T02:57:12;11.30;99.90
13898;DHT22;7019;50.766;4.474;2022-10-16T02:59:39;11.30;99.90
13898;DHT22;7019;50.766;4.474;2022-10-16T03:02:07;11.30;99.90
13898;DHT22;7019;50.766;4.474;2022-10-16T03:04:34;11.30;99.90
13898;DHT22;7019;50.766;4.474;2022-10-16T03:07:02;11.40;99.90
13898;DHT22;7019;50.766;4.474;2022-10-16T03:09:29;11.40;99.90
13898;DHT22;7019;50.766;4.474;2022-10-16T03:11:56;11.40;99.90
13898;DHT22;7019;50.766;4.474;2022-10-16T03:14:23;11.40;99.90
13898;DHT22;7019;50.766;4.474;2022-10-16T03:16:50;11.50;99.90
13898;DHT22;7019;50.766;4.474;2022-10-16T03:19:18;11.50;99.90
13898;DHT22;7019;50.766;4.474;2022-10-16T03:21:46;11.50;99.90
13898;DHT22;7019;50.766;4.474;2022-10-16T03:24:13;11.50;99.90
13898;DHT22;7019;50.766;4.474;2022-10-16T03:26:40;11.50;99.90
13898;DHT22;7019;50.766;4.474;2022-10-16T03:29:07;11.50;99.90
13898;DHT22;7019;50.766;4.474;2022-10-16T03:31:34;11.50;99.90
13898;DHT22;7019;50.766;4.474;2022-10-16T03:34:01;11.50;99.90
13898;DHT22;7019;50.766;4.474;2022-10-16T03:36:30;11.40;99.90
13898;DHT22;7019;50.766;4.474;2022-10-16T03:38:57;11.40;99.90
13898;DHT22;7019;50.766;4.474;2022-10-16T03:41:24;11.40;99.90
13898;DHT22;7019;50.766;4.474;2022-10-16T03:43:51;11.40;99.90
13898;DHT22;7019;50.766;4.474;2022-10-16T03:46:18;11.40;99.90
13898;DHT22;7019;50.766;4.474;2022-10-16T03:48:45;11.40;99.90
13898;DHT22;7019;50.766;4.474;2022-10-16T03:51:12;11.30;99.90
13898;DHT22;7019;50.766;4.474;2022-10-16T03:53:40;11.30;99.90
13898;DHT22;7019;50.766;4.474;2022-10-16T03:56:08;11.30;99.90
13898;DHT22;7019;50.766;4.474;2022-10-16T03:58:35;11.30;99.90
13898;DHT22;7019;50.766;4.474;2022-10-16T04:01:02;11.30;99.90
13898;DHT22;7019;50.766;4.474;2022-10-16T04:03:29;11.20;99.90
13898;DHT22;7019;50.766;4.474;2022-10-16T04:05:56;11.30;99.90
13898;DHT22;7019;50.766;4.474;2022-10-16T04:08:23;11.30;99.90
13898;DHT22;7019;50.766;4.474;2022-10-16T04:10:52;11.30;99.90
13898;DHT22;7019;50.766;4.474;2022-10-16T04:13:19;11.30;99.90
13898;DHT22;7019;50.766;4.474;2022-10-16T04:15:46;11.30;99.90
13898;DHT22;7019;50.766;4.474;2022-10-16T04:18:13;11.30;99.90
13898;DHT22;7019;50.766;4.474;2022-10-16T04:20:40;11.40;99.90
13898;DHT22;7019;50.766;4.474;2022-10-16T04:23:07;11.40;99.90
13898;DHT22;7019;50.766;4.474;2022-10-16T04:25:34;11.40;99.90
13898;DHT22;7019;50.766;4.474;2022-10-16T04:28:03;11.30;99.90
13898;DHT22;7019;50.766;4.474;2022-10-16T04:30:30;11.30;99.90
13898;DHT22;7019;50.766;4.474;2022-10-16T04:32:59;11.20;99.90
13898;DHT22;7019;50.766;4.474;2022-10-16T04:35:26;11.20;99.90
13898;DHT22;7019;50.766;4.474;2022-10-16T04:37:53;11.20;99.90
13898;DHT22;7019;50.766;4.474;2022-10-16T04:40:20;11.20;99.90
13898;DHT22;7019;50.766;4.474;2022-10-16T04:42:47;11.30;99.90
13898;DHT22;7019;50.766;4.474;2022-10-16T04:45:15;11.30;99.90
13898;DHT22;7019;50.766;4.474;2022-10-16T04:47:43;11.20;99.90
13898;DHT22;7019;50.766;4.474;2022-10-16T04:50:10;11.20;99.90
13898;DHT22;7019;50.766;4.474;2022-10-16T04:52:37;11.20;99.90
13898;DHT22;7019;50.766;4.474;2022-10-16T04:55:05;11.20;99.90
13898;DHT22;7019;50.766;4.474;2022-10-16T04:57:32;11.20;99.90
13898;DHT22;7019;50.766;4.474;2022-10-16T05:00:00;11.20;99.90
13898;DHT22;7019;50.766;4.474;2022-10-16T05:02:29;11.20;99.90
13898;DHT22;7019;50.766;4.474;2022-10-16T05:04:57;11.30;99.90
13898;DHT22;7019;50.766;4.474;2022-10-16T05:07:23;11.40;99.90
13898;DHT22;7019;50.766;4.474;2022-10-16T05:09:51;11.40;99.90
13898;DHT22;7019;50.766;4.474;2022-10-16T05:12:18;11.40;99.90
13898;DHT22;7019;50.766;4.474;2022-10-16T05:14:46;11.30;99.90
13898;DHT22;7019;50.766;4.474;2022-10-16T05:17:13;11.20;99.90
13898;DHT22;7019;50.766;4.474;2022-10-16T05:19:41;11.20;99.90
13898;DHT22;7019;50.766;4.474;2022-10-16T05:22:08;11.20;99.90
13898;DHT22;7019;50.766;4.474;2022-10-16T05:24:36;11.20;99.90
13898;DHT22;7019;50.766;4.474;2022-10-16T05:27:03;11.20;99.90
13898;DHT22;7019;50.766;4.474;2022-10-16T05:29:30;11.10;99.90
13898;DHT22;7019;50.766;4.474;2022-10-16T05:31:57;11.10;99.90
13898;DHT22;7019;50.766;4.474;2022-10-16T05:34:24;11.00;99.90
13898;DHT22;7019;50.766;4.474;2022-10-16T05:36:53;11.00;99.90
13898;DHT22;7019;50.766;4.474;2022-10-16T05:39:20;11.00;99.90
13898;DHT22;7019;50.766;4.474;2022-10-16T05:41:49;10.90;99.90
13898;DHT22;7019;50.766;4.474;2022-10-16T05:44:17;10.90;99.90
13898;DHT22;7019;50.766;4.474;2022-10-16T05:46:46;10.80;99.90
13898;DHT22;7019;50.766;4.474;2022-10-16T05:49:13;10.80;99.90
13898;DHT22;7019;50.766;4.474;2022-10-16T05:51:40;10.80;99.90
13898;DHT22;7019;50.766;4.474;2022-10-16T05:54:09;10.70;99.90
13898;DHT22;7019;50.766;4.474;2022-10-16T05:56:36;10.70;99.90
13898;DHT22;7019;50.766;4.474;2022-10-16T05:59:04;10.70;99.90
13898;DHT22;7019;50.766;4.474;2022-10-16T06:01:31;10.60;99.90
13898;DHT22;7019;50.766;4.474;2022-10-16T06:03:58;10.60;99.90
13898;DHT22;7019;50.766;4.474;2022-10-16T06:06:27;10.70;99.90
13898;DHT22;7019;50.766;4.474;2022-10-16T06:08:56;10.70;99.90
13898;DHT22;7019;50.766;4.474;2022-10-16T06:11:26;10.70;99.90
13898;DHT22;7019;50.766;4.474;2022-10-16T06:13:56;10.70;99.90
13898;DHT22;7019;50.766;4.474;2022-10-16T06:16:24;10.70;99.90
13898;DHT22;7019;50.766;4.474;2022-10-16T06:18:52;10.60;99.90
13898;DHT22;7019;50.766;4.474;2022-10-16T06:21:20;10.60;99.90
13898;DHT22;7019;50.766;4.474;2022-10-16T06:23:48;10.60;99.90
13898;DHT22;7019;50.766;4.474;2022-10-16T06:26:16;10.50;99.90
13898;DHT22;7019;50.766;4.474;2022-10-16T06:28:45;10.50;99.90
13898;DHT22;7019;50.766;4.474;2022-10-16T06:31:13;10.50;99.90
13898;DHT22;7019;50.766;4.474;2022-10-16T06:33:40;10.50;99.90
13898;DHT22;7019;50.766;4.474;2022-10-16T06:36:09;10.50;99.90
13898;DHT22;7019;50.766;4.474;2022-10-16T06:38:37;10.40;99.90
13898;DHT22;7019;50.766;4.474;2022-10-16T06:41:05;10.50;99.90
13898;DHT22;7019;50.766;4.474;2022-10-16T06:43:33;10.50;99.90
13898;DHT22;7019;50.766;4.474;2022-10-16T06:46:03;10.50;99.90
13898;DHT22;7019;50.766;4.474;2022-10-16T06:48:31;10.60;99.90
13898;DHT22;7019;50.766;4.474;2022-10-16T06:51:00;10.70;99.90
13898;DHT22;7019;50.766;4.474;2022-10-16T06:53:28;10.70;99.90
13898;DHT22;7019;50.766;4.474;2022-10-16T06:55:56;10.80;99.90
13898;DHT22;7019;50.766;4.474;2022-10-16T06:58:23;11.00;99.90
13898;DHT22;7019;50.766;4.474;2022-10-16T07:00:55;11.10;99.90
13898;DHT22;7019;50.766;4.474;2022-10-16T07:03:24;11.10;99.90
13898;DHT22;7019;50.766;4.474;2022-10-16T07:05:51;11.10;99.90
13898;DHT22;7019;50.766;4.474;2022-10-16T07:08:18;11.10;99.90
13898;DHT22;7019;50.766;4.474;2022-10-16T07:10:45;11.20;99.90
13898;DHT22;7019;50.766;4.474;2022-10-16T07:13:12;11.30;99.90
13898;DHT22;7019;50.766;4.474;2022-10-16T07:15:40;11.40;99.90
13898;DHT22;7019;50.766;4.474;2022-10-16T07:18:07;11.50;99.90
13898;DHT22;7019;50.766;4.474;2022-10-16T07:20:35;11.50;99.90
13898;DHT22;7019;50.766;4.474;2022-10-16T07:23:03;11.60;99.90
13898;DHT22;7019;50.766;4.474;2022-10-16T07:25:30;11.80;99.90
13898;DHT22;7019;50.766;4.474;2022-10-16T07:27:57;11.90;99.90
13898;DHT22;7019;50.766;4.474;2022-10-16T07:30:24;12.00;99.90
13898;DHT22;7019;50.766;4.474;2022-10-16T07:32:51;12.20;99.90
13898;DHT22;7019;50.766;4.474;2022-10-16T07:35:18;12.20;99.90
13898;DHT22;7019;50.766;4.474;2022-10-16T07:37:47;12.20;99.90
13898;DHT22;7019;50.766;4.474;2022-10-16T07:40:14;12.20;99.90
13898;DHT22;7019;50.766;4.474;2022-10-16T07:42:41;12.20;99.90
13898;DHT22;7019;50.766;4.474;2022-10-16T07:45:08;12.40;99.90
13898;DHT22;7019;50.766;4.474;2022-10-16T07:47:35;12.50;99.90
13898;DHT22;7019;50.766;4.474;2022-10-16T07:50:03;12.50;99.90
13898;DHT22;7019;50.766;4.474;2022-10-16T07:52:30;12.50;99.90
13898;DHT22;7019;50.766;4.474;2022-10-16T07:54:59;12.50;99.90
13898;DHT22;7019;50.766;4.474;2022-10-16T07:57:26;12.50;99.90
13898;DHT22;7019;50.766;4.474;2022-10-16T07:59:53;12.60;99.90
13898;DHT22;7019;50.766;4.474;2022-10-16T08:02:20;12.80;99.90
13898;DHT22;7019;50.766;4.474;2022-10-16T08:04:47;12.90;99.90
13898;DHT22;7019;50.766;4.474;2022-10-16T08:07:15;12.90;99.90
13898;DHT22;7019;50.766;4.474;2022-10-16T08:09:42;12.90;99.90
13898;DHT22;7019;50.766;4.474;2022-10-16T08:12:11;12.90;99.90
13898;DHT22;7019;50.766;4.474;2022-10-16T08:14:38;12.90;99.90
13898;DHT22;7019;50.766;4.474;2022-10-16T08:17:05;12.90;99.90
13898;DHT22;7019;50.766;4.474;2022-10-16T08:19:33;13.00;99.90
13898;DHT22;7019;50.766;4.474;2022-10-16T08:22:00;13.00;99.90
13898;DHT22;7019;50.766;4.474;2022-10-16T08:24:27;13.10;99.90
13898;DHT22;7019;50.766;4.474;2022-10-16T08:26:56;13.10;99.90
13898;DHT22;7019;50.766;4.474;2022-10-16T08:29:25;13.00;99.90
13898;DHT22;7019;50.766;4.474;2022-10-16T08:31:52;13.00;99.90
13898;DHT22;7019;50.766;4.474;2022-10-16T08:34:19;13.00;99.90
13898;DHT22;7019;50.766;4.474;2022-10-16T08:36:46;13.00;99.90
13898;DHT22;7019;50.766;4.474;2022-10-16T08:39:13;13.00;99.90
13898;DHT22;7019;50.766;4.474;2022-10-16T08:42:11;13.10;99.90
13898;DHT22;7019;50.766;4.474;2022-10-16T08:45:02;13.20;99.90
13898;DHT22;7019;50.766;4.474;2022-10-16T08:47:41;13.20;99.90
13898;DHT22;7019;50.766;4.474;2022-10-16T08:50:13;13.30;99.90
13898;DHT22;7019;50.766;4.474;2022-10-16T08:52:43;13.20;99.90
13898;DHT22;7019;50.766;4.474;2022-10-16T08:55:19;13.30;99.90
13898;DHT22;7019;50.766;4.474;2022-10-16T08:57:51;13.30;99.90
13898;DHT22;7019;50.766;4.474;2022-10-16T09:00:20;13.40;99.90
13898;DHT22;7019;50.766;4.474;2022-10-16T09:02:52;13.40;99.90
13898;DHT22;7019;50.766;4.474;2022-10-16T09:05:40;13.50;99.90
13898;DHT22;7019;50.766;4.474;2022-10-16T09:08:17;13.50;99.90
13898;DHT22;7019;50.766;4.474;2022-10-16T09:10:56;13.60;99.90
13898;DHT22;7019;50.766;4.474;2022-10-16T09:13:28;13.70;99.90
13898;DHT22;7019;50.766;4.474;2022-10-16T09:16:07;13.80;99.90
13898;DHT22;7019;50.766;4.474;2022-10-16T09:18:43;13.80;99.90
13898;DHT22;7019;50.766;4.474;2022-10-16T09:21:17;13.90;99.90
13898;DHT22;7019;50.766;4.474;2022-10-16T09:23:45;13.90;99.90
13898;DHT22;7019;50.766;4.474;2022-10-16T09:26:14;14.10;99.90
13898;DHT22;7019;50.766;4.474;2022-10-16T09:28:44;14.30;99.90
13898;DHT22;7019;50.766;4.474;2022-10-16T09:31:16;14.40;99.90
13898;DHT22;7019;50.766;4.474;2022-10-16T09:33:45;14.50;99.90
13898;DHT22;7019;50.766;4.474;2022-10-16T09:36:14;14.50;99.90
13898;DHT22;7019;50.766;4.474;2022-10-16T09:38:41;14.60;99.90
13898;DHT22;7019;50.766;4.474;2022-10-16T09:41:16;14.60;99.90
13898;DHT22;7019;50.766;4.474;2022-10-16T09:43:49;14.70;99.90
13898;DHT22;7019;50.766;4.474;2022-10-16T09:46:26;14.70;99.90
13898;DHT22;7019;50.766;4.474;2022-10-16T09:48:56;14.70;99.90
13898;DHT22;7019;50.766;4.474;2022-10-16T09:51:25;14.90;99.90
13898;DHT22;7019;50.766;4.474;2022-10-16T09:53:56;15.00;99.90
13898;DHT22;7019;50.766;4.474;2022-10-16T09:56:25;15.10;99.90
13898;DHT22;7019;50.766;4.474;2022-10-16T09:58:53;15.20;99.90
13898;DHT22;7019;50.766;4.474;2022-10-16T10:01:23;15.20;99.90
13898;DHT22;7019;50.766;4.474;2022-10-16T10:03:56;15.30;99.90
13898;DHT22;7019;50.766;4.474;2022-10-16T10:06:28;15.30;99.90
13898;DHT22;7019;50.766;4.474;2022-10-16T10:09:02;15.40;99.90
13898;DHT22;7019;50.766;4.474;2022-10-16T10:11:46;15.50;99.90
13898;DHT22;7019;50.766;4.474;2022-10-16T10:14:24;15.60;99.90
13898;DHT22;7019;50.766;4.474;2022-10-16T10:17:08;15.60;99.90
13898;DHT22;7019;50.766;4.474;2022-10-16T10:19:38;15.60;99.90
13898;DHT22;7019;50.766;4.474;2022-10-16T10:22:22;15.60;99.90
13898;DHT22;7019;50.766;4.474;2022-10-16T10:30:39;15.40;99.90
13898;DHT22;7019;50.766;4.474;2022-10-16T10:33:25;15.50;99.90
13898;DHT22;7019;50.766;4.474;2022-10-16T10:36:01;15.60;99.90
13898;DHT22;7019;50.766;4.474;2022-10-16T10:38:42;15.60;99.90
13898;DHT22;7019;50.766;4.474;2022-10-16T10:41:22;15.60;99.90
13898;DHT22;7019;50.766;4.474;2022-10-16T10:44:01;15.70;99.90
13898;DHT22;7019;50.766;4.474;2022-10-16T10:46:34;15.70;99.90
13898;DHT22;7019;50.766;4.474;2022-10-16T10:49:12;15.80;99.90
13898;DHT22;7019;50.766;4.474;2022-10-16T10:51:52;15.80;99.90
13898;DHT22;7019;50.766;4.474;2022-10-16T10:54:25;15.70;99.90
13898;DHT22;7019;50.766;4.474;2022-10-16T10:56:58;15.70;99.90
13898;DHT22;7019;50.766;4.474;2022-10-16T10:59:46;15.60;99.90
13898;DHT22;7019;50.766;4.474;2022-10-16T11:02:21;15.80;99.90
13898;DHT22;7019;50.766;4.474;2022-10-16T11:05:19;15.80;99.90
13898;DHT22;7019;50.766;4.474;2022-10-16T11:07:52;15.90;99.90
13898;DHT22;7019;50.766;4.474;2022-10-16T11:10:22;16.10;99.90
13898;DHT22;7019;50.766;4.474;2022-10-16T11:12:55;16.30;99.90
13898;DHT22;7019;50.766;4.474;2022-10-16T11:15:27;16.30;99.90
13898;DHT22;7019;50.766;4.474;2022-10-16T11:18:00;16.30;99.90
13898;DHT22;7019;50.766;4.474;2022-10-16T11:20:37;16.30;99.90
13898;DHT22;7019;50.766;4.474;2022-10-16T11:23:12;16.30;99.90
13898;DHT22;7019;50.766;4.474;2022-10-16T11:25:43;16.20;99.90
13898;DHT22;7019;50.766;4.474;2022-10-16T11:28:12;16.20;99.90
13898;DHT22;7019;50.766;4.474;2022-10-16T11:30:45;16.20;99.90
13898;DHT22;7019;50.766;4.474;2022-10-16T11:33:27;16.10;99.90
13898;DHT22;7019;50.766;4.474;2022-10-16T11:36:04;16.20;99.90
13898;DHT22;7019;50.766;4.474;2022-10-16T11:38:39;16.30;99.90
13898;DHT22;7019;50.766;4.474;2022-10-16T11:41:15;16.60;99.90
13898;DHT22;7019;50.766;4.474;2022-10-16T11:43:50;16.80;99.90
13898;DHT22;7019;50.766;4.474;2022-10-16T11:46:22;16.70;99.90
13898;DHT22;7019;50.766;4.474;2022-10-16T11:48:53;16.70;99.90
13898;DHT22;7019;50.766;4.474;2022-10-16T11:51:26;16.70;99.90
13898;DHT22;7019;50.766;4.474;2022-10-16T11:54:01;16.60;99.90
13898;DHT22;7019;50.766;4.474;2022-10-16T11:56:31;16.60;99.90
13898;DHT22;7019;50.766;4.474;2022-10-16T11:59:02;16.50;99.90
13898;DHT22;7019;50.766;4.474;2022-10-16T12:01:37;16.60;99.90
13898;DHT22;7019;50.766;4.474;2022-10-16T12:04:14;16.80;99.90
13898;DHT22;7019;50.766;4.474;2022-10-16T12:06:48;17.00;99.90
13898;DHT22;7019;50.766;4.474;2022-10-16T12:09:22;17.40;99.90
13898;DHT22;7019;50.766;4.474;2022-10-16T12:11:51;17.60;99.90
13898;DHT22;7019;50.766;4.474;2022-10-16T12:14:36;17.80;99.90
13898;DHT22;7019;50.766;4.474;2022-10-16T12:17:23;17.90;99.90
13898;DHT22;7019;50.766;4.474;2022-10-16T12:19:58;18.10;99.90
13898;DHT22;7019;50.766;4.474;2022-10-16T12:22:29;18.30;99.90
13898;DHT22;7019;50.766;4.474;2022-10-16T12:24:57;18.30;99.90
13898;DHT22;7019;50.766;4.474;2022-10-16T12:27:29;18.30;99.90
13898;DHT22;7019;50.766;4.474;2022-10-16T12:29:58;18.20;99.90
13898;DHT22;7019;50.766;4.474;2022-10-16T12:37:26;18.20;99.90
13898;DHT22;7019;50.766;4.474;2022-10-16T12:39:55;18.10;99.90
13898;DHT22;7019;50.766;4.474;2022-10-16T12:42:32;18.10;99.90
13898;DHT22;7019;50.766;4.474;2022-10-16T12:45:00;18.20;99.90
13898;DHT22;7019;50.766;4.474;2022-10-16T12:47:47;18.20;99.90
13898;DHT22;7019;50.766;4.474;2022-10-16T12:50:31;18.10;99.90
13898;DHT22;7019;50.766;4.474;2022-10-16T12:52:59;18.10;99.90
13898;DHT22;7019;50.766;4.474;2022-10-16T12:55:35;18.00;99.90
13898;DHT22;7019;50.766;4.474;2022-10-16T12:58:48;18.00;99.90
13898;DHT22;7019;50.766;4.474;2022-10-16T13:01:31;18.00;99.90
13898;DHT22;7019;50.766;4.474;2022-10-16T13:04:36;18.00;99.90
13898;DHT22;7019;50.766;4.474;2022-10-16T13:07:19;18.10;99.90
13898;DHT22;7019;50.766;4.474;2022-10-16T13:09:58;18.00;99.90
13898;DHT22;7019;50.766;4.474;2022-10-16T13:12:42;18.10;99.90
13898;DHT22;7019;50.766;4.474;2022-10-16T13:15:23;18.30;99.90
13898;DHT22;7019;50.766;4.474;2022-10-16T13:17:59;18.30;99.90
13898;DHT22;7019;50.766;4.474;2022-10-16T13:20:33;18.30;99.90
13898;DHT22;7019;50.766;4.474;2022-10-16T13:23:12;18.20;99.90
13898;DHT22;7019;50.766;4.474;2022-10-16T13:25:52;18.20;99.90
13898;DHT22;7019;50.766;4.474;2022-10-16T13:28:28;18.00;99.90
13898;DHT22;7019;50.766;4.474;2022-10-16T13:30:58;18.00;99.90
13898;DHT22;7019;50.766;4.474;2022-10-16T13:33:30;18.10;99.90
13898;DHT22;7019;50.766;4.474;2022-10-16T13:35:59;18.20;99.90
13898;DHT22;7019;50.766;4.474;2022-10-16T13:38:27;18.30;99.90
13898;DHT22;7019;50.766;4.474;2022-10-16T13:40:56;18.50;99.90
13898;DHT22;7019;50.766;4.474;2022-10-16T13:43:28;18.70;99.90
13898;DHT22;7019;50.766;4.474;2022-10-16T13:45:57;18.60;99.90
13898;DHT22;7019;50.766;4.474;2022-10-16T13:48:25;18.50;99.90
13898;DHT22;7019;50.766;4.474;2022-10-16T13:51:00;18.30;99.90
13898;DHT22;7019;50.766;4.474;2022-10-16T13:53:27;18.20;99.90
13898;DHT22;7019;50.766;4.474;2022-10-16T13:55:56;18.00;99.90
13898;DHT22;7019;50.766;4.474;2022-10-16T13:58:27;17.90;99.90
13898;DHT22;7019;50.766;4.474;2022-10-16T14:00:56;17.90;99.90
13898;DHT22;7019;50.766;4.474;2022-10-16T14:03:25;17.90;99.90
13898;DHT22;7019;50.766;4.474;2022-10-16T14:05:53;17.90;99.90
13898;DHT22;7019;50.766;4.474;2022-10-16T14:08:22;17.90;99.90
13898;DHT22;7019;50.766;4.474;2022-10-16T14:10:50;18.00;99.90
13898;DHT22;7019;50.766;4.474;2022-10-16T14:13:20;18.00;99.90
13898;DHT22;7019;50.766;4.474;2022-10-16T14:15:51;17.90;99.90
13898;DHT22;7019;50.766;4.474;2022-10-16T14:18:21;17.90;99.90
13898;DHT22;7019;50.766;4.474;2022-10-16T14:20:50;17.90;99.90
13898;DHT22;7019;50.766;4.474;2022-10-16T14:23:23;18.00;99.90
13898;DHT22;7019;50.766;4.474;2022-10-16T14:25:51;18.00;99.90
13898;DHT22;7019;50.766;4.474;2022-10-16T14:28:21;18.00;99.90
13898;DHT22;7019;50.766;4.474;2022-10-16T14:30:52;18.00;99.90
13898;DHT22;7019;50.766;4.474;2022-10-16T14:33:22;18.00;99.90
13898;DHT22;7019;50.766;4.474;2022-10-16T14:36:01;18.00;99.90
13898;DHT22;7019;50.766;4.474;2022-10-16T14:38:29;18.00;99.90
13898;DHT22;7019;50.766;4.474;2022-10-16T14:40:58;18.00;99.90
13898;DHT22;7019;50.766;4.474;2022-10-16T14:43:31;18.00;99.90
13898;DHT22;7019;50.766;4.474;2022-10-16T14:46:02;18.00;99.90
13898;DHT22;7019;50.766;4.474;2022-10-16T14:48:30;17.90;99.90
13898;DHT22;7019;50.766;4.474;2022-10-16T14:50:57;17.90;99.90
13898;DHT22;7019;50.766;4.474;2022-10-16T14:53:24;17.80;99.90
13898;DHT22;7019;50.766;4.474;2022-10-16T14:55:51;17.70;99.90
13898;DHT22;7019;50.766;4.474;2022-10-16T14:58:20;17.60;99.90
13898;DHT22;7019;50.766;4.474;2022-10-16T15:00:48;17.60;99.90
13898;DHT22;7019;50.766;4.474;2022-10-16T15:03:16;17.60;99.90
13898;DHT22;7019;50.766;4.474;2022-10-16T15:05:43;17.50;99.90
13898;DHT22;7019;50.766;4.474;2022-10-16T15:08:10;17.50;99.90
13898;DHT22;7019;50.766;4.474;2022-10-16T15:10:40;17.40;99.90
13898;DHT22;7019;50.766;4.474;2022-10-16T15:13:11;17.40;99.90
13898;DHT22;7019;50.766;4.474;2022-10-16T15:15:42;17.30;99.90
13898;DHT22;7019;50.766;4.474;2022-10-16T15:18:09;17.30;99.90
13898;DHT22;7019;50.766;4.474;2022-10-16T15:20:39;17.20;99.90
13898;DHT22;7019;50.766;4.474;2022-10-16T15:23:10;17.20;99.90
13898;DHT22;7019;50.766;4.474;2022-10-16T15:25:42;17.20;99.90
13898;DHT22;7019;50.766;4.474;2022-10-16T15:28:10;17.10;99.90
13898;DHT22;7019;50.766;4.474;2022-10-16T15:30:38;17.10;99.90
13898;DHT22;7019;50.766;4.474;2022-10-16T15:33:11;17.00;99.90
13898;DHT22;7019;50.766;4.474;2022-10-16T15:35:40;16.90;99.90
13898;DHT22;7019;50.766;4.474;2022-10-16T15:38:11;16.80;99.90
13898;DHT22;7019;50.766;4.474;2022-10-16T15:40:39;16.80;99.90
13898;DHT22;7019;50.766;4.474;2022-10-16T15:43:06;16.70;99.90
13898;DHT22;7019;50.766;4.474;2022-10-16T15:45:34;16.50;99.90
13898;DHT22;7019;50.766;4.474;2022-10-16T15:48:01;16.40;99.90
13898;DHT22;7019;50.766;4.474;2022-10-16T15:50:30;16.40;99.90
13898;DHT22;7019;50.766;4.474;2022-10-16T15:52:58;16.30;99.90
13898;DHT22;7019;50.766;4.474;2022-10-16T15:55:25;16.20;99.90
13898;DHT22;7019;50.766;4.474;2022-10-16T15:57:52;16.10;99.90
13898;DHT22;7019;50.766;4.474;2022-10-16T16:00:20;16.10;99.90
13898;DHT22;7019;50.766;4.474;2022-10-16T16:02:50;16.00;99.90
13898;DHT22;7019;50.766;4.474;2022-10-16T16:05:19;15.90;99.90
13898;DHT22;7019;50.766;4.474;2022-10-16T16:07:47;15.90;99.90
13898;DHT22;7019;50.766;4.474;2022-10-16T16:10:15;15.80;99.90
13898;DHT22;7019;50.766;4.474;2022-10-16T16:12:42;15.80;99.90
13898;DHT22;7019;50.766;4.474;2022-10-16T16:15:14;15.80;99.90
13898;DHT22;7019;50.766;4.474;2022-10-16T16:17:42;15.80;99.90